This is the latest recevied weather packets stored in our database for station/object KA9CBS. If no packets are shown the sender has not sent any weather packets the latest 10 day(s).
| Time | Temp. | Humidity | Pressure | Rain* | Wind** | Luminosity | Snow |
|---|---|---|---|---|---|---|---|
| 1777932178 | 23.89° C | 46% | 1006.8 hPa | 0 mm | - | 121 W/m² | - |
| 1777931876 | 23.89° C | 48% | 1006.8 hPa | 0 mm | - | 233 W/m² | - |
| 1777931572 | 23.89° C | 49% | 1006.6 hPa | 0 mm | - | 190 W/m² | - |
| 1777931268 | 23.89° C | 47% | 1006.4 hPa | 0 mm | - | 223 W/m² | - |
| 1777930965 | 23.33° C | 47% | 1007.1 hPa | 0 mm | - | 118 W/m² | - |
| 1777930661 | 23.33° C | 47% | 1006.9 hPa | 0 mm | - | 114 W/m² | - |
| 1777930358 | 23.33° C | 45% | 1007.5 hPa | 0 mm | - | 53 W/m² | - |
| 1777930055 | 23.33° C | 44% | 1008.1 hPa | 0 mm | - | 27 W/m² | - |
| 1777929751 | 23.33° C | 44% | 1008.3 hPa | 0 mm | - | 22 W/m² | - |
| 1777929449 | 23.33° C | 45% | 1008.5 hPa | 0 mm | - | 22 W/m² | - |
| 1777929145 | 23.89° C | 43% | 1008.3 hPa | 0 mm | - | 23 W/m² | - |
| 1777928842 | 23.33° C | 44% | 1008.5 hPa | 0 mm | - | 24 W/m² | - |
| 1777928540 | 23.89° C | 43% | 1008.5 hPa | 0 mm | - | 26 W/m² | - |
| 1777928236 | 23.89° C | 44% | 1008.7 hPa | 0 mm | - | 31 W/m² | - |
| 1777927934 | 23.89° C | 43% | 1009 hPa | 0 mm | - | 38 W/m² | - |
| 1777927626 | 23.33° C | 43% | 1008.9 hPa | 0 mm | - | 48 W/m² | - |
| 1777927325 | 23.89° C | 43% | 1008.7 hPa | 0 mm | - | 52 W/m² | - |
| 1777927024 | 23.89° C | 44% | 1008.8 hPa | 0 mm | - | 45 W/m² | - |
| 1777926721 | 23.89° C | 45% | 1008.7 hPa | 0 mm | - | 41 W/m² | - |
| 1777926420 | 23.89° C | 43% | 1008.8 hPa | 0 mm | - | 38 W/m² | - |
| 1777926118 | 23.89° C | 43% | 1008.7 hPa | 0 mm | - | 37 W/m² | - |
| 1777925815 | 23.89° C | 43% | 1008.6 hPa | 0 mm | - | 42 W/m² | - |
| 1777925512 | 23.89° C | 44% | 1008.7 hPa | 0 mm | - | 47 W/m² | - |
| 1777925209 | 23.89° C | 45% | 1008.8 hPa | 0 mm | - | 52 W/m² | - |
| 1777924906 | 23.89° C | 44% | 1008.6 hPa | 0 mm | - | 66 W/m² | - |
* Rain latest hour (hover to see other rain measurements)
** Current wind speed in m/s (hover to see current wind gust speed)